createdAt,value
2018-06-18T00:01:25.282Z,4.7
2018-06-18T00:11:25.021Z,4.3
2018-06-18T00:21:25.033Z,4.3
2018-06-18T00:31:34.766Z,4.7
2018-06-18T00:41:25.683Z,13.2
2018-06-18T00:51:31.773Z,17.4
2018-06-18T01:01:28.024Z,16.3
2018-06-18T01:11:25.306Z,8.1
2018-06-18T01:21:27.063Z,4.1
2018-06-18T01:31:32.245Z,3.5
2018-06-18T01:41:33.681Z,3.1
2018-06-18T01:51:27.931Z,3.3
2018-06-18T02:01:28.395Z,3.0
2018-06-18T02:11:25.486Z,2.9
2018-06-18T02:21:33.008Z,2.5
2018-06-18T02:31:31.310Z,2.7
2018-06-18T02:41:29.010Z,3.3
2018-06-18T02:51:25.931Z,2.6
2018-06-18T03:01:31.891Z,2.5
2018-06-18T03:11:26.200Z,2.8
2018-06-18T03:21:25.384Z,2.8
2018-06-18T03:31:25.218Z,2.8
2018-06-18T03:41:25.154Z,3.3
2018-06-18T03:51:25.260Z,3.2
2018-06-18T04:01:26.671Z,3.2
2018-06-18T04:11:26.899Z,3.2
2018-06-18T04:21:25.909Z,3.0
2018-06-18T04:31:26.068Z,3.1
2018-06-18T04:41:25.800Z,3.3
2018-06-18T04:51:26.832Z,3.8
2018-06-18T05:01:26.249Z,3.6
2018-06-18T05:11:32.902Z,3.2
2018-06-18T05:21:25.189Z,3.6
2018-06-18T05:31:25.029Z,3.1
2018-06-18T05:41:26.478Z,3.7
2018-06-18T05:51:25.905Z,4.1
2018-06-18T06:01:28.562Z,4.2
2018-06-18T06:11:25.932Z,4.4
2018-06-18T06:21:25.633Z,3.9
2018-06-18T06:31:27.979Z,3.6
2018-06-18T06:41:26.003Z,3.9
2018-06-18T06:51:25.734Z,4.3
2018-06-18T07:01:25.629Z,3.6
2018-06-18T07:11:26.637Z,4.2
2018-06-18T07:21:26.234Z,4.1
2018-06-18T07:31:25.044Z,4.8
2018-06-18T07:41:25.792Z,5.0
2018-06-18T07:51:26.660Z,4.7
2018-06-18T08:01:25.720Z,5.1
2018-06-18T08:11:25.615Z,5.0
2018-06-18T08:21:25.619Z,5.2
2018-06-18T08:31:26.797Z,4.5
2018-06-18T08:41:26.625Z,5.2
2018-06-18T08:51:25.616Z,5.5
2018-06-18T09:01:25.394Z,5.5
2018-06-18T09:11:25.485Z,4.5
2018-06-18T09:21:27.480Z,4.5
2018-06-18T09:31:25.378Z,4.1
2018-06-18T09:41:27.750Z,3.9
2018-06-18T09:51:26.005Z,4.8
2018-06-18T10:01:25.865Z,4.9
2018-06-18T10:11:27.193Z,4.3
2018-06-18T10:21:25.910Z,4.8
2018-06-18T10:31:26.815Z,3.7
2018-06-18T10:41:25.723Z,3.4
2018-06-18T10:51:25.270Z,3.4
2018-06-18T11:01:25.646Z,3.4
2018-06-18T11:11:25.495Z,4.0
2018-06-18T11:21:25.688Z,3.4
2018-06-18T11:31:26.302Z,3.6
2018-06-18T11:41:26.383Z,3.7
2018-06-18T11:51:25.118Z,3.7
2018-06-18T12:01:25.163Z,4.6
2018-06-18T12:11:25.018Z,3.9
2018-06-18T12:21:24.963Z,4.0
2018-06-18T12:31:27.833Z,3.8
2018-06-18T12:41:26.572Z,5.0
2018-06-18T12:51:28.767Z,4.2
2018-06-18T13:01:26.286Z,4.9
2018-06-18T13:11:25.845Z,4.8
2018-06-18T13:21:25.522Z,5.0
2018-06-18T13:31:25.839Z,4.8
2018-06-18T13:41:26.461Z,4.8
2018-06-18T13:51:26.172Z,4.6
2018-06-18T14:01:24.913Z,4.7
2018-06-18T14:11:25.696Z,4.5
2018-06-18T14:21:25.935Z,4.6
2018-06-18T14:31:25.646Z,4.3
2018-06-18T14:41:25.732Z,4.2
2018-06-18T14:51:26.557Z,4.4
2018-06-18T15:01:27.608Z,3.9
2018-06-18T15:11:27.028Z,3.8
2018-06-18T15:21:24.963Z,4.0
2018-06-18T15:31:26.288Z,4.1
2018-06-18T15:41:25.632Z,3.9
2018-06-18T15:51:29.013Z,4.4
2018-06-18T16:01:26.121Z,3.9
2018-06-18T16:11:25.150Z,4.2
2018-06-18T16:21:25.856Z,4.4
2018-06-18T16:31:26.056Z,5.4
2018-06-18T16:41:25.819Z,6.7
2018-06-18T16:51:27.837Z,7.3
2018-06-18T17:01:26.593Z,8.0
2018-06-18T17:11:25.851Z,7.4
2018-06-18T17:21:26.099Z,7.7
2018-06-18T17:31:25.639Z,7.4
2018-06-18T17:41:26.288Z,10.7
2018-06-18T17:51:25.538Z,7.2
2018-06-18T18:01:25.576Z,7.1
2018-06-18T18:11:25.544Z,7.0
2018-06-18T18:21:27.905Z,8.2
2018-06-18T18:31:28.210Z,8.3
2018-06-18T18:41:25.459Z,8.2
2018-06-18T18:51:25.661Z,8.5
2018-06-18T19:01:26.780Z,9.2
2018-06-18T19:11:25.920Z,9.1
2018-06-18T19:21:25.414Z,9.7
2018-06-18T19:31:25.325Z,11.1
2018-06-18T19:41:26.903Z,11.0
2018-06-18T19:51:25.854Z,15.2
2018-06-18T20:01:25.790Z,13.0
2018-06-18T20:11:25.757Z,11.4
2018-06-18T20:21:26.204Z,11.7
2018-06-18T20:31:25.219Z,11.2
2018-06-18T20:41:26.488Z,13.1
2018-06-18T20:51:26.784Z,12.8
2018-06-18T21:01:26.619Z,12.3
2018-06-18T21:11:25.452Z,13.1
2018-06-18T21:21:26.490Z,13.6
2018-06-18T21:31:25.383Z,13.2
2018-06-18T21:41:25.630Z,13.7
2018-06-18T21:51:26.584Z,14.1
2018-06-18T22:01:25.614Z,14.7
2018-06-18T22:11:26.116Z,13.8
2018-06-18T22:21:25.906Z,13.2
2018-06-18T22:31:29.145Z,10.3
2018-06-18T22:41:25.410Z,10.9
2018-06-18T22:51:27.012Z,10.2
2018-06-18T23:01:26.386Z,9.7
2018-06-18T23:11:25.726Z,9.9
2018-06-18T23:21:25.989Z,8.8
2018-06-18T23:31:31.770Z,8.6
2018-06-18T23:41:26.257Z,8.5
2018-06-18T23:51:25.163Z,8.4
